Flight Track Log - Related Links

Times and Time Zones

All times are in EDT time to prevent confusion due to time zone crossing. See the ASA3465 flight status page for this flight to view local times or setup timezone preferences in your user account.

Time Position Orientation Groundspeed Altitude Reporting Facility
EDT Latitude Longitude Course Direction KTS MPH feet Rate Location/Type
05:22PM 34.0500 -117.6167 295° West 152 175 1,900  Level Southern California TRACON
05:24PM 34.1100 -117.7722 295° West 240 276 6,400 2,069 Climbing Los Angeles Center
05:25PM 34.1525 -117.8500 303° West 271 312 8,900 2,323 Climbing Los Angeles Center
05:26PM 34.2008 -117.9339 305° West 298 343 11,200 2,304 Climbing Los Angeles Center
05:27PM 34.2636 -118.0503 303° West 345 397 13,700 2,208 Climbing Los Angeles Center
05:28PM 34.3236 -118.1472 307° West 360 414 15,800 1,742 Climbing Los Angeles Center
05:29PM 34.3925 -118.2483 310° West 389 448 17,300 1,452 Climbing Los Angeles Center
05:31PM 34.4658 -118.3564 309° West 414 476 18,800 1,548 Climbing Los Angeles Center
05:32PM 34.5436 -118.4653 311° West 428 493 20,500 1,887 Climbing Los Angeles Center
05:33PM 34.6706 -118.5525 331° Northwest 441 507 22,700 1,887 Climbing Los Angeles Center
05:34PM 34.7767 -118.6231 331° Northwest 437 503 24,400 1,548 Climbing Los Angeles Center
05:35PM 34.8842 -118.6936 332° Northwest 439 505 25,900 1,440 Climbing Los Angeles Center
05:36PM 35.0058 -118.7461 341° North 449 517 27,400 1,392 Climbing Los Angeles Center
05:37PM 35.1233 -118.7908 343° North 443 510 28,800 1,210 Climbing Los Angeles Center
05:38PM 35.2431 -118.8353 343° North 450 518 29,900 1,016 Climbing Los Angeles Center
05:39PM 35.3653 -118.8822 343° North 457 526 30,900 1,113 Climbing Los Angeles Center
05:40PM 35.5078 -118.9378 342° North 451 519 32,200 1,161 Climbing Los Angeles Center
05:41PM 35.6256 -118.9850 342° North 448 516 33,300 951 Climbing Los Angeles Center
05:41PM 35.6483 -118.9936 343° North 455 524 33,500 1,098 Climbing Oakland Center
05:42PM 35.7892 -119.0486 342° North 447 514 34,800 1,122 Climbing Oakland Center
05:43PM 35.9058 -119.0936 343° North 441 507 35,800 927 Climbing Oakland Center
05:44PM 36.0211 -119.1394 342° North 438 504 36,700 683 Climbing Oakland Center
05:45PM 36.1381 -119.1853 342° North 441 507 37,200 488 Climbing Oakland Center
05:46PM 36.2553 -119.2306 343° North 443 510 37,700 390 Climbing Oakland Center
05:47PM 36.3717 -119.2764 342° North 443 510 38,000 148 Climbing Oakland Center
05:48PM 36.4903 -119.3258 341° North 453 521 38,000  Level Oakland Center
05:49PM 36.6361 -119.3822 343° North 458 527 38,000  Level Oakland Center
05:50PM 36.7567 -119.4319 342° North 456 525 38,000  Level Oakland Center
05:51PM 36.8769 -119.4811 342° North 458 527 38,000  Level Oakland Center
05:52PM 36.9961 -119.5303 342° North 452 520 38,000  Level Oakland Center
05:53PM 37.1133 -119.5786 342° North 446 513 38,000  Level Oakland Center
05:55PM 37.2308 -119.6267 342° North 445 512 38,000  Level Oakland Center
05:56PM 37.3483 -119.6750 342° North 443 510 38,000  Level Oakland Center
05:57PM 37.4800 -119.7303 342° North 446 513 38,000  Level Oakland Center
05:58PM 37.6042 -119.7772 343° North 438 504 38,000  Level Oakland Center
05:59PM 37.7183 -119.8208 343° North 429 494 38,000  Level Oakland Center
06:00PM 37.8347 -119.8689 342° North 437 503 38,000  Level Oakland Center
06:01PM 37.9508 -119.9167 342° North 440 506 38,000  Level Oakland Center
06:02PM 38.0681 -119.9644 342° North 443 510 38,000  Level Oakland Center
06:03PM 38.1811 -120.0119 342° North 435 501 38,000  Level Oakland Center
06:04PM 38.2936 -120.0594 342° North 430 495 38,000  Level Oakland Center
06:05PM 38.4075 -120.1086 341° North 432 497 38,000  Level Oakland Center
06:06PM 38.5436 -120.1642 342° North 431 496 38,000  Level Oakland Center
06:07PM 38.6564 -120.2122 342° North 430 495 38,000  Level Oakland Center
06:08PM 38.7686 -120.2608 341° North 428 493 38,000  Level Oakland Center
06:09PM 38.8800 -120.3078 342° North 425 489 38,000  Level Oakland Center
06:10PM 38.9917 -120.3561 341° North 425 489 38,000  Level Oakland Center
06:11PM 39.1042 -120.4042 342° North 427 491 38,000  Level Oakland Center
06:12PM 39.2164 -120.4528 341° North 427 491 38,000  Level Oakland Center
06:13PM 39.3286 -120.4997 342° North 425 489 38,000  Level Oakland Center
06:14PM 39.4619 -120.5581 341° North 424 488 38,000  Level Oakland Center
06:15PM 39.5728 -120.6075 341° North 423 487 38,000  Level Oakland Center
06:16PM 39.6842 -120.6547 342° North 422 486 38,000  Level Oakland Center
06:17PM 39.7947 -120.7056 341° North 422 486 38,000  Level Oakland Center
06:18PM 39.9033 -120.7511 342° North 415 478 38,000  Level Oakland Center
06:19PM 40.0244 -120.8044 341° North 418 481 38,000  Level Oakland Center
06:20PM 40.1339 -120.8536 341° North 418 481 38,000  Level Oakland Center
06:21PM 40.2428 -120.9011 342° North 415 478 38,000  Level Oakland Center
06:22PM 40.3525 -120.9503 341° North 420 483 38,000  Level Oakland Center
06:23PM 40.4603 -120.9983 341° North 414 476 38,000  Level Oakland Center
06:24PM 40.5633 -121.0489 340° North 415 478 38,000  Level Oakland Center
06:25PM 40.6728 -121.0969 342° North 415 478 38,000  Level Oakland Center
06:26PM 40.8042 -121.1550 342° North 415 478 38,000  Level Oakland Center
06:27PM 40.9208 -121.2069 341° North 429 494 38,000  Level Oakland Center
06:28PM 41.0264 -121.2553 341° North 419 482 38,000  Level Seattle Center
06:29PM 41.1389 -121.3078 341° North 425 489 38,000  Level Seattle Center
06:30PM 41.2531 -121.3603 341° North 432 497 38,000  Level Seattle Center
06:31PM 41.3678 -121.4136 341° North 435 501 38,000  Level Seattle Center
06:32PM 41.4828 -121.4656 341° North 437 503 38,000  Level Seattle Center
06:33PM 41.5967 -121.5189 341° North 435 501 38,000  Level Seattle Center
06:34PM 41.7097 -121.5714 341° North 433 498 38,000  Level Seattle Center
06:36PM 41.9364 -121.6772 341° North 433 498 38,000  Level Seattle Center
06:37PM 42.0686 -121.7378 341° North 426 490 38,000  Level Seattle Center
06:38PM 42.1781 -121.7908 340° North 427 491 38,000  Level Seattle Center
06:39PM 42.2897 -121.8336 344° North 423 487 38,000  Level Seattle Center
06:40PM 42.4044 -121.8672 348° North 426 490 38,000  Level Seattle Center
06:41PM 42.5197 -121.9019 347° North 427 491 38,000  Level Seattle Center
06:42PM 42.6356 -121.9367 348° North 426 490 38,000  Level Seattle Center
06:44PM 42.7519 -121.9708 348° North 428 493 38,000  Level Seattle Center
06:45PM 42.8672 -122.0075 347° North 426 490 38,000  Level Seattle Center
06:46PM 42.9833 -122.0428 347° North 428 493 38,000  Level Seattle Center
06:47PM 43.1203 -122.0853 347° North 423 487 38,000  Level Seattle Center
06:48PM 43.2358 -122.1208 347° North 425 489 38,000  Level Seattle Center
06:49PM 43.3461 -122.1536 348° North 435 501 38,000  Level Seattle Center
06:50PM 43.4628 -122.1875 348° North 430 495 38,000  Level Seattle Center
06:51PM 43.5778 -122.2247 347° North 427 491 38,000  Level Seattle Center
06:52PM 43.6939 -122.2619 347° North 427 491 38,000  Level Seattle Center
06:53PM 43.8103 -122.2975 348° North 430 495 38,000 -1,082 Level Seattle Center
06:54PM 43.9475 -122.3417 347° North 425 489 35,800 -2,410 Descending Seattle Center
06:55PM 44.0614 -122.3767 348° North 423 487 33,100 -2,656 Descending Seattle Center
06:56PM 44.1758 -122.4144 347° North 425 489 30,400 -2,656 Descending Seattle Center
06:57PM 44.2914 -122.4519 347° North 427 491 27,700 -2,656 Descending Seattle Center
06:58PM 44.4056 -122.4875 347° North 425 489 25,000 -2,656 Descending Seattle Center
06:59PM 44.5142 -122.5228 347° North 406 467 22,300 -2,656 Descending Seattle Center
07:00PM 44.6183 -122.5575 347° North 391 450 19,600 -2,650 Descending Seattle Center
07:01PM 44.7331 -122.5950 347° North 373 429 17,000 -2,244 Descending Seattle Center
07:02PM 44.8178 -122.6219 347° North 367 422 15,000 -2,160 Descending Seattle Center
07:03PM 44.9267 -122.6581 347° North 356 410 12,500 -1,869 Descending Seattle Center
07:04PM 45.0081 -122.6258 16° North 314 361 11,200 -1,282 Descending Seattle Center
07:05PM 45.0814 -122.5914 18° North 281 323 10,000 -1,328 Descending Seattle Center
07:06PM 45.1564 -122.5547 19° North 283 326 8,500 -1,293 Descending Seattle Center
07:07PM 45.2239 -122.5244 18° North 282 325 7,500 -1,230 Descending Seattle Center
07:08PM 45.3006 -122.4856 20° North 273 314 6,000 -1,173 Descending Seattle Center
07:09PM 45.3656 -122.4533 19° North 256 295 4,900 -1,086 Descending Seattle Center
07:10PM 45.4344 -122.4197 19° North 249 287 3,900 -983 Descending Seattle Center
07:11PM 45.4939 -122.3922 18° North 226 260 3,000 -744 Descending Seattle Center
07:12PM 45.5314 -122.4383 319° Northwest 164 189 2,400 -793 Descending Seattle Center
07:13PM 45.5525 -122.4883 301° West 141 162 1,400 -836 Descending Seattle Center
07:14PM 45.5703 -122.5336 299° West 116 133 700 -465 Descending Seattle Center
07:15PM 45.5900 -122.5806 301° West 144 166 400 -265 Descending Seattle Center

Login

Don't have an account? Register now (free) for customized features, flight alerts, and more!